Time;durP1;ratioP1;P1;durP2;ratioP2;P2;SDS_P1;SDS_P2;PMS_P1;PMS_P2;Temp;Humidity;BMP_temperature;BMP_pressure;BME280_temperature;BME280_humidity;BME280_pressure;Samples;Min_cycle;Max_cycle;Signal;HPM_P1;HPM_P2
2024/03/13 00:00:22;;;;;;;34.10;19.95;;;7.40;99.90;;;;;;5077429;28;20048;-49
2024/03/13 00:02:49;;;;;;;37.00;20.02;;;7.50;99.90;;;;;;5067598;28;20040;-49
2024/03/13 00:05:17;;;;;;;36.55;19.73;;;7.40;99.90;;;;;;5077375;28;20494;-53
2024/03/13 00:07:48;;;;;;;40.45;22.55;;;7.50;99.90;;;;;;5073100;28;20109;-50
2024/03/13 00:10:15;;;;;;;41.30;21.27;;;7.50;99.90;;;;;;5073405;28;20037;-52
2024/03/13 00:12:42;;;;;;;37.85;19.23;;;7.50;99.90;;;;;;5071166;28;20416;-51
2024/03/13 00:15:10;;;;;;;35.13;19.27;;;7.50;99.90;;;;;;5072925;28;20373;-48
2024/03/13 00:17:38;;;;;;;40.25;19.92;;;7.50;99.90;;;;;;5074568;28;20041;-46
2024/03/13 00:20:05;;;;;;;34.78;19.20;;;7.40;99.90;;;;;;5074665;28;20543;-51
2024/03/13 00:22:36;;;;;;;35.72;17.80;;;7.50;99.90;;;;;;5076185;28;20446;-45
2024/03/13 00:25:10;;;;;;;32.90;18.52;;;7.50;99.90;;;;;;5071469;28;20048;-51
2024/03/13 00:27:39;;;;;;;35.22;18.90;;;7.50;99.90;;;;;;5071542;28;20059;-47
2024/03/13 00:30:08;;;;;;;38.92;19.75;;;7.40;99.90;;;;;;5077708;28;20055;-51
2024/03/13 00:32:35;;;;;;;34.38;19.08;;;7.40;99.90;;;;;;5068642;28;20044;-50
2024/03/13 00:35:04;;;;;;;31.75;18.10;;;7.50;99.90;;;;;;5081920;28;20032;-48
2024/03/13 00:37:30;;;;;;;40.08;20.67;;;7.50;99.90;;;;;;5069421;28;20044;-52
2024/03/13 00:39:58;;;;;;;36.90;19.67;;;7.50;99.90;;;;;;5080062;28;20473;-50
2024/03/13 00:42:25;;;;;;;38.33;19.75;;;7.50;99.90;;;;;;5074557;28;20536;-53
2024/03/13 00:44:53;;;;;;;33.95;19.65;;;7.50;99.90;;;;;;5072917;28;20106;-52
2024/03/13 00:47:22;;;;;;;39.40;19.65;;;7.40;99.90;;;;;;5073362;28;20234;-47
2024/03/13 00:49:52;;;;;;;35.75;19.17;;;7.30;99.90;;;;;;5077700;28;20128;-48
2024/03/13 00:52:19;;;;;;;33.53;19.08;;;7.20;99.90;;;;;;5075977;28;20052;-53
2024/03/13 00:54:46;;;;;;;42.50;20.20;;;7.20;99.90;;;;;;5075871;28;20098;-52
2024/03/13 00:57:17;;;;;;;40.13;18.40;;;7.10;99.90;;;;;;5072384;28;20072;-50
2024/03/13 00:59:46;;;;;;;34.17;16.83;;;7.10;99.90;;;;;;5073065;28;20053;-54
2024/03/13 01:02:13;;;;;;;31.88;16.58;;;7.20;99.90;;;;;;5073696;28;20036;-51
2024/03/13 01:04:42;;;;;;;28.38;16.42;;;7.10;99.90;;;;;;5075240;28;20102;-47
2024/03/13 01:07:10;;;;;;;35.97;18.60;;;7.10;99.90;;;;;;5074081;28;20044;-50
2024/03/13 01:09:38;;;;;;;33.58;17.05;;;7.10;99.90;;;;;;5073265;28;20490;-52
2024/03/13 01:12:05;;;;;;;35.15;18.48;;;7.20;99.90;;;;;;5074505;28;20139;-49
2024/03/13 01:14:33;;;;;;;34.08;18.23;;;7.20;99.90;;;;;;5074808;28;20063;-51
2024/03/13 01:17:02;;;;;;;33.15;17.63;;;7.20;99.90;;;;;;5071985;28;20052;-54
2024/03/13 01:19:34;;;;;;;37.63;18.60;;;7.20;99.90;;;;;;5072848;28;20053;-51
2024/03/13 01:22:05;;;;;;;36.75;18.98;;;7.20;99.90;;;;;;5075851;28;20130;-50
2024/03/13 01:24:33;;;;;;;36.43;19.63;;;7.20;99.90;;;;;;5066636;28;20075;-49
2024/03/13 01:27:00;;;;;;;35.67;17.35;;;7.20;99.90;;;;;;5075850;28;20057;-52
2024/03/13 01:29:27;;;;;;;38.58;18.92;;;7.20;99.90;;;;;;5074481;28;20128;-50
2024/03/13 01:31:58;;;;;;;34.30;19.83;;;7.30;99.90;;;;;;5072505;28;20590;-55
2024/03/13 01:34:26;;;;;;;37.08;18.80;;;7.30;99.90;;;;;;5074639;28;20489;-50
2024/03/13 01:37:55;;;;;;;39.25;19.48;;;7.30;99.90;;;;;;5070772;28;20068;-49
2024/03/13 01:39:53;;;;;;;37.47;18.02;;;7.20;99.90;;;;;;5075149;28;20044;-52
2024/03/13 01:54:50;;;;;;;36.55;18.65;;;7.20;99.90;;;;;;5071182;28;20070;-51
2024/03/13 01:56:32;;;;;;;36.45;18.08;;;7.30;99.90;;;;;;5075251;28;20063;-52
2024/03/13 01:59:20;;;;;;;34.85;18.08;;;7.30;99.90;;;;;;5069331;28;20037;-48
2024/03/13 02:04:34;;;;;;;35.30;17.85;;;7.30;99.90;;;;;;5075323;28;20063;-50
2024/03/13 02:07:02;;;;;;;34.30;18.55;;;7.30;99.90;;;;;;5071754;28;20043;-50
2024/03/13 02:09:30;;;;;;;29.63;16.70;;;7.30;99.90;;;;;;5073403;28;20509;-51
2024/03/13 02:11:57;;;;;;;35.00;18.60;;;7.40;99.90;;;;;;5068172;28;20043;-50
2024/03/13 02:14:24;;;;;;;34.67;18.17;;;7.30;99.90;;;;;;5074750;28;20049;-46
2024/03/13 02:16:54;;;;;;;30.15;15.43;;;7.40;99.90;;;;;;5069958;28;20036;-51
2024/03/13 02:19:22;;;;;;;34.30;17.27;;;7.40;99.90;;;;;;5071757;28;20036;-50
2024/03/13 02:21:58;;;;;;;34.15;17.02;;;7.30;99.90;;;;;;5072266;28;20106;-50
2024/03/13 02:24:25;;;;;;;31.92;16.70;;;7.30;99.90;;;;;;5074535;28;20044;-48
2024/03/13 02:26:52;;;;;;;35.53;17.65;;;7.30;99.90;;;;;;5074486;28;20091;-47
2024/03/13 02:29:19;;;;;;;34.85;17.67;;;7.20;99.90;;;;;;5074763;28;20048;-47
2024/03/13 02:31:46;;;;;;;29.50;15.77;;;7.30;99.90;;;;;;5070533;28;20056;-50
2024/03/13 02:34:16;;;;;;;39.28;18.98;;;7.20;99.90;;;;;;5076089;28;20100;-50
2024/03/13 02:36:43;;;;;;;32.10;16.48;;;7.20;99.90;;;;;;5076092;28;20512;-54
2024/03/13 02:39:10;;;;;;;32.10;16.75;;;7.20;99.90;;;;;;5071948;28;20055;-50
2024/03/13 02:41:38;;;;;;;35.47;18.48;;;7.20;99.90;;;;;;5075261;28;20029;-46
2024/03/13 02:44:06;;;;;;;41.25;18.67;;;7.20;99.90;;;;;;5071100;28;20040;-50
2024/03/13 02:46:32;;;;;;;33.67;17.42;;;7.20;99.90;;;;;;5071175;28;20508;-47
2024/03/13 02:48:59;;;;;;;36.88;18.85;;;7.20;99.90;;;;;;5072958;28;20048;-47
2024/03/13 02:51:26;;;;;;;36.00;18.98;;;7.20;99.90;;;;;;5076262;28;20043;-51
2024/03/13 02:53:53;;;;;;;36.38;18.58;;;7.20;99.90;;;;;;5068656;28;20164;-51
2024/03/13 02:56:20;;;;;;;35.45;18.80;;;7.20;99.90;;;;;;5073947;28;20130;-50
2024/03/13 02:58:48;;;;;;;36.50;19.23;;;7.20;99.90;;;;;;5066714;28;20477;-52
2024/03/13 03:01:16;;;;;;;35.50;18.23;;;7.20;99.90;;;;;;5076545;28;20048;-52
2024/03/13 03:03:43;;;;;;;34.47;18.20;;;7.20;99.90;;;;;;5075550;28;20417;-51
2024/03/13 03:06:10;;;;;;;38.28;19.80;;;7.20;99.90;;;;;;5075669;28;20486;-50
2024/03/13 03:08:41;;;;;;;36.38;18.73;;;7.20;99.90;;;;;;5077241;28;20102;-48
2024/03/13 03:11:07;;;;;;;35.63;18.33;;;7.20;99.90;;;;;;5075939;28;20479;-51
2024/03/13 03:13:34;;;;;;;34.10;18.10;;;7.20;99.90;;;;;;5075850;28;20076;-49
2024/03/13 03:16:01;;;;;;;34.38;17.13;;;7.20;99.90;;;;;;5074771;28;20041;-48
2024/03/13 03:18:28;;;;;;;36.25;18.35;;;7.20;99.90;;;;;;5069371;28;20513;-50
2024/03/13 03:20:58;;;;;;;36.00;17.67;;;7.20;99.90;;;;;;5076372;28;20041;-54
2024/03/13 03:23:24;;;;;;;35.42;17.38;;;7.20;99.90;;;;;;5072910;28;20043;-47
2024/03/13 03:25:51;;;;;;;33.88;17.38;;;7.20;99.90;;;;;;5079425;28;20125;-50
2024/03/13 03:28:19;;;;;;;34.55;18.23;;;7.20;99.90;;;;;;5075768;28;20032;-51
2024/03/13 03:30:48;;;;;;;33.03;17.85;;;7.30;99.90;;;;;;5078865;28;20041;-52
2024/03/13 03:33:18;;;;;;;36.33;16.98;;;7.20;99.90;;;;;;5075263;28;20036;-50
2024/03/13 03:35:45;;;;;;;33.40;17.65;;;7.30;99.90;;;;;;5074723;28;20135;-55
2024/03/13 03:38:12;;;;;;;31.02;16.63;;;7.30;99.90;;;;;;5067487;28;20434;-50
2024/03/13 03:40:38;;;;;;;30.15;15.82;;;7.30;99.90;;;;;;5068156;28;20041;-48
2024/03/13 03:43:05;;;;;;;34.28;18.10;;;7.30;99.90;;;;;;5081291;28;20397;-51
2024/03/13 03:45:33;;;;;;;32.72;16.95;;;7.20;99.90;;;;;;5069114;28;20127;-53
2024/03/13 03:48:00;;;;;;;31.50;16.35;;;7.20;99.90;;;;;;5072140;28;20420;-53
2024/03/13 03:50:37;;;;;;;30.58;16.58;;;7.20;99.90;;;;;;5079313;28;20081;-52
2024/03/13 03:53:04;;;;;;;33.33;17.88;;;7.20;99.90;;;;;;5075664;28;20067;-51
2024/03/13 03:55:31;;;;;;;35.10;16.70;;;7.20;99.90;;;;;;5078737;28;20059;-49
2024/03/13 03:57:58;;;;;;;33.97;18.17;;;7.10;99.90;;;;;;5070523;28;20072;-48
2024/03/13 04:00:25;;;;;;;32.67;18.10;;;7.20;99.90;;;;;;5076539;28;20050;-49
2024/03/13 04:02:52;;;;;;;34.70;17.80;;;7.10;99.90;;;;;;5077124;28;20036;-47
2024/03/13 04:05:19;;;;;;;37.97;19.30;;;7.10;99.90;;;;;;5079431;28;20119;-52
2024/03/13 04:07:51;;;;;;;31.50;17.50;;;7.10;99.90;;;;;;5076096;28;20044;-52
2024/03/13 04:10:19;;;;;;;39.58;18.30;;;7.10;99.90;;;;;;5074488;28;20048;-48
2024/03/13 04:12:49;;;;;;;35.47;18.38;;;7.20;99.90;;;;;;5075628;28;20102;-49
2024/03/13 04:15:21;;;;;;;36.42;18.35;;;7.10;99.90;;;;;;5073259;28;20524;-46
2024/03/13 04:17:48;;;;;;;;;;;7.10;99.90;;;;;;5075179;28;20124;-48
2024/03/13 04:20:20;;;;;;;32.80;17.58;;;7.10;99.90;;;;;;5068410;28;20181;-49
2024/03/13 04:22:48;;;;;;;37.03;18.73;;;7.00;99.90;;;;;;5076391;28;20044;-49
2024/03/13 04:25:15;;;;;;;35.75;18.15;;;7.00;99.90;;;;;;5066587;28;20127;-50
2024/03/13 04:27:42;;;;;;;34.72;17.15;;;7.00;99.90;;;;;;5070046;28;20044;-48
2024/03/13 04:30:09;;;;;;;33.42;17.60;;;6.90;99.90;;;;;;5072830;28;20047;-47
2024/03/13 04:32:36;;;;;;;34.20;17.77;;;6.90;99.90;;;;;;5064852;28;20040;-47
2024/03/13 04:35:04;;;;;;;40.67;18.40;;;6.80;99.90;;;;;;5079821;28;20036;-48
2024/03/13 04:37:31;;;;;;;34.85;17.77;;;6.80;99.90;;;;;;5061878;28;20119;-48
2024/03/13 04:39:59;;;;;;;37.90;19.25;;;6.70;99.90;;;;;;5066147;28;20043;-47
2024/03/13 04:42:27;;;;;;;35.22;16.88;;;6.60;99.90;;;;;;5074684;28;20155;-50
2024/03/13 04:44:55;;;;;;;32.67;17.60;;;6.60;99.90;;;;;;5071201;28;20044;-47
2024/03/13 04:47:23;;;;;;;32.85;17.60;;;6.50;99.90;;;;;;5074106;28;20481;-49
2024/03/13 04:49:50;;;;;;;33.42;17.52;;;6.40;99.90;;;;;;5076103;28;20516;-48
2024/03/13 04:52:19;;;;;;;32.10;16.38;;;6.20;99.90;;;;;;5072548;28;20105;-50
2024/03/13 04:54:46;;;;;;;36.47;17.73;;;6.10;99.90;;;;;;5073508;28;20036;-49
2024/03/13 04:57:13;;;;;;;34.75;17.45;;;6.00;99.90;;;;;;5072622;28;20033;-51
2024/03/13 04:59:40;;;;;;;37.75;17.73;;;5.90;99.90;;;;;;5077249;28;20049;-55
2024/03/13 05:02:07;;;;;;;40.17;18.95;;;5.90;99.90;;;;;;5074327;28;20048;-48
2024/03/13 05:04:35;;;;;;;35.65;17.98;;;5.90;99.90;;;;;;5074207;28;20483;-49
2024/03/13 05:07:02;;;;;;;36.35;17.80;;;5.80;99.90;;;;;;5069388;28;20044;-52
2024/03/13 05:09:29;;;;;;;37.17;17.23;;;5.80;99.90;;;;;;5074571;28;20143;-49
2024/03/13 05:11:56;;;;;;;39.42;19.17;;;5.90;99.90;;;;;;5075718;28;20048;-50
2024/03/13 05:14:23;;;;;;;36.08;19.00;;;5.90;99.90;;;;;;5074820;28;20589;-48
2024/03/13 05:16:50;;;;;;;35.95;18.25;;;6.00;99.90;;;;;;5071444;28;20048;-50
2024/03/13 05:19:18;;;;;;;36.65;18.83;;;6.10;99.90;;;;;;5066272;28;20029;-51
2024/03/13 05:21:46;;;;;;;33.28;17.35;;;6.20;99.90;;;;;;5075347;28;20123;-48
2024/03/13 05:24:13;;;;;;;35.67;17.77;;;6.30;99.90;;;;;;5079030;28;20052;-52
2024/03/13 05:26:44;;;;;;;37.67;17.15;;;6.40;99.90;;;;;;5069252;28;20040;-51
2024/03/13 05:29:11;;;;;;;30.80;17.85;;;6.50;99.90;;;;;;5077583;28;20040;-48
2024/03/13 05:31:38;;;;;;;34.30;16.95;;;6.50;99.90;;;;;;5068184;28;20512;-51
2024/03/13 05:34:04;;;;;;;34.78;17.50;;;6.60;99.90;;;;;;5075365;28;20317;-49
2024/03/13 05:36:32;;;;;;;31.90;17.40;;;6.70;99.90;;;;;;5071234;28;20051;-48
2024/03/13 05:38:59;;;;;;;34.90;16.10;;;6.70;99.90;;;;;;5072714;28;20548;-51
2024/03/13 05:41:26;;;;;;;29.40;15.20;;;6.70;99.90;;;;;;5073281;28;20093;-48
2024/03/13 05:43:53;;;;;;;33.20;16.30;;;6.80;99.90;;;;;;5065634;28;23178;-45
2024/03/13 05:46:22;;;;;;;31.83;16.88;;;6.80;99.90;;;;;;5077449;28;20033;-52
2024/03/13 05:48:49;;;;;;;33.13;17.17;;;6.90;99.90;;;;;;5067063;28;20127;-52
2024/03/13 05:51:17;;;;;;;37.03;17.73;;;6.90;99.90;;;;;;5072836;28;20071;-54
2024/03/13 05:53:44;;;;;;;37.65;19.10;;;6.90;99.90;;;;;;5069316;28;20114;-50
2024/03/13 05:56:11;;;;;;;37.28;18.58;;;6.90;99.90;;;;;;5076387;28;20036;-49
2024/03/13 05:58:41;;;;;;;35.58;18.33;;;6.90;99.90;;;;;;5065838;28;20040;-49
2024/03/13 06:01:12;;;;;;;33.55;17.95;;;6.90;99.90;;;;;;5071232;28;20487;-52
2024/03/13 06:03:39;;;;;;;33.83;18.55;;;7.00;99.90;;;;;;5076577;28;20140;-49
2024/03/13 06:06:06;;;;;;;37.60;19.42;;;7.00;99.90;;;;;;5067623;28;20055;-52
2024/03/13 06:08:33;;;;;;;37.45;18.92;;;7.00;99.90;;;;;;5063828;28;20036;-46
2024/03/13 06:11:00;;;;;;;42.28;21.50;;;7.00;99.90;;;;;;5067937;28;20872;-48
2024/03/13 06:13:27;;;;;;;37.75;20.38;;;7.10;99.90;;;;;;5067669;28;20040;-49
2024/03/13 06:15:54;;;;;;;36.35;19.83;;;7.00;99.90;;;;;;5070631;28;20044;-50
2024/03/13 06:18:23;;;;;;;36.08;18.70;;;7.00;99.90;;;;;;5069486;28;20040;-51
2024/03/13 06:20:49;;;;;;;37.30;19.05;;;7.00;99.90;;;;;;5072193;28;20044;-49
2024/03/13 06:23:16;;;;;;;37.40;19.42;;;7.00;99.90;;;;;;5074302;28;20518;-50
2024/03/13 06:25:48;;;;;;;33.15;17.63;;;7.00;99.90;;;;;;5077467;28;20057;-54
2024/03/13 06:31:08;;;;;;;33.63;18.23;;;7.10;99.90;;;;;;5058070;28;20123;-48
2024/03/13 06:33:35;;;;;;;33.60;18.35;;;7.20;99.90;;;;;;5068568;28;20117;-49
2024/03/13 06:36:02;;;;;;;35.38;17.73;;;7.20;99.90;;;;;;5072456;28;20048;-52
2024/03/13 06:38:29;;;;;;;34.83;18.45;;;7.30;99.90;;;;;;5060950;28;20071;-50
2024/03/13 06:40:56;;;;;;;34.97;19.02;;;7.40;99.90;;;;;;5067222;28;20128;-48
2024/03/13 06:43:23;;;;;;;40.88;20.25;;;7.50;99.90;;;;;;5075009;28;20040;-48
2024/03/13 06:45:50;;;;;;;36.47;19.33;;;7.60;99.90;;;;;;5061900;28;20060;-51
2024/03/13 06:48:18;;;;;;;37.22;19.23;;;7.70;99.90;;;;;;5074085;28;20047;-51
2024/03/13 06:50:45;;;;;;;31.77;18.48;;;7.70;99.90;;;;;;5071474;28;20499;-47
2024/03/13 06:53:12;;;;;;;34.72;19.55;;;7.90;99.90;;;;;;5068901;28;20040;-50
2024/03/13 06:55:38;;;;;;;33.58;17.95;;;7.80;99.90;;;;;;5073070;28;20079;-49
2024/03/13 06:58:05;;;;;;;32.20;18.25;;;7.90;99.90;;;;;;5067551;28;20043;-49
2024/03/13 07:00:32;;;;;;;35.80;17.92;;;8.00;99.90;;;;;;5073514;28;20068;-50
2024/03/13 07:03:02;;;;;;;31.48;16.83;;;8.10;99.90;;;;;;5070641;28;20114;-52
2024/03/13 07:05:29;;;;;;;30.23;17.15;;;8.10;99.90;;;;;;5068308;28;20051;-48
2024/03/13 07:07:57;;;;;;;30.63;16.85;;;8.10;99.90;;;;;;5066687;28;20398;-46
2024/03/13 07:10:24;;;;;;;24.08;14.30;;;8.20;99.90;;;;;;5064682;28;20037;-53
2024/03/13 07:12:51;;;;;;;27.98;16.63;;;8.30;99.90;;;;;;5066957;28;20488;-49
2024/03/13 07:15:18;;;;;;;29.63;16.42;;;8.30;99.90;;;;;;5067193;28;20032;-49
2024/03/13 07:17:45;;;;;;;29.40;14.90;;;8.50;99.90;;;;;;5071192;28;20076;-48
2024/03/13 07:20:13;;;;;;;26.73;15.27;;;8.60;99.90;;;;;;5066483;28;20638;-50
2024/03/13 07:22:42;;;;;;;27.67;16.70;;;8.70;99.90;;;;;;5068781;28;20040;-56
2024/03/13 07:25:10;;;;;;;26.98;15.15;;;8.70;99.90;;;;;;5068797;28;20093;-51
2024/03/13 07:27:37;;;;;;;26.10;15.63;;;8.70;99.90;;;;;;5069279;28;20056;-49
2024/03/13 07:30:05;;;;;;;27.98;15.45;;;8.80;99.90;;;;;;5080058;28;20135;-52
2024/03/13 07:32:32;;;;;;;22.90;14.32;;;8.80;99.90;;;;;;5059591;28;20556;-51
2024/03/13 07:34:59;;;;;;;27.85;15.73;;;8.80;99.90;;;;;;5075836;28;20047;-52
2024/03/13 07:37:26;;;;;;;27.63;16.38;;;8.80;99.90;;;;;;5073950;28;20522;-50
2024/03/13 07:39:53;;;;;;;22.95;14.57;;;8.90;99.90;;;;;;5070167;28;20040;-51
2024/03/13 07:42:20;;;;;;;27.70;14.85;;;9.00;99.90;;;;;;5072588;28;20044;-52
2024/03/13 07:44:47;;;;;;;25.20;14.65;;;9.10;99.90;;;;;;5063854;28;20040;-52
2024/03/13 07:47:14;;;;;;;21.30;12.68;;;9.20;99.90;;;;;;5069951;28;20085;-51
2024/03/13 07:49:43;;;;;;;23.10;13.32;;;9.40;99.90;;;;;;5069304;28;20139;-47
2024/03/13 07:52:12;;;;;;;23.00;13.57;;;9.40;99.90;;;;;;5076462;28;20032;-52
2024/03/13 07:54:39;;;;;;;22.80;14.23;;;9.50;99.90;;;;;;5073457;28;20450;-44
2024/03/13 07:57:08;;;;;;;22.05;12.63;;;9.40;99.90;;;;;;5076702;28;20562;-46
2024/03/13 07:59:35;;;;;;;24.25;13.13;;;9.60;99.90;;;;;;5080832;28;20039;-45
2024/03/13 08:02:02;;;;;;;21.08;12.57;;;9.80;99.90;;;;;;5072506;28;20439;-47
2024/03/13 08:04:30;;;;;;;20.48;12.27;;;9.90;99.90;;;;;;5082742;28;20102;-53
2024/03/13 08:06:58;;;;;;;22.10;11.65;;;10.00;99.90;;;;;;5072704;28;20045;-48
2024/03/13 08:09:43;;;;;;;18.33;10.57;;;10.00;99.90;;;;;;5075262;28;20109;-45
2024/03/13 08:12:27;;;;;;;16.27;11.05;;;10.10;99.90;;;;;;5075150;28;20013;-46
2024/03/13 08:15:12;;;;;;;18.02;10.70;;;10.20;99.90;;;;;;5070863;28;20043;-43
2024/03/13 08:17:56;;;;;;;15.70;10.02;;;10.30;99.90;;;;;;5078245;28;20043;-47
2024/03/13 08:20:41;;;;;;;15.20;10.45;;;10.30;99.90;;;;;;5059951;28;20041;-49
2024/03/13 08:23:26;;;;;;;17.33;10.40;;;10.40;99.90;;;;;;5067647;28;20491;-47
2024/03/13 08:26:11;;;;;;;17.38;11.05;;;10.30;99.90;;;;;;5077537;28;20020;-48
2024/03/13 08:28:56;;;;;;;15.65;9.93;;;10.50;99.90;;;;;;5072376;28;20059;-48
2024/03/13 08:31:42;;;;;;;16.75;10.65;;;10.70;99.90;;;;;;5067388;28;20514;-50
2024/03/13 08:34:26;;;;;;;13.02;8.55;;;10.70;99.90;;;;;;5075979;28;20032;-44
2024/03/13 08:37:11;;;;;;;11.45;8.43;;;10.40;99.90;;;;;;5070553;28;20032;-45
2024/03/13 08:39:58;;;;;;;14.25;8.48;;;10.20;99.90;;;;;;5075124;28;20493;-48
2024/03/13 08:42:45;;;;;;;13.55;8.13;;;10.30;99.90;;;;;;5074461;28;20600;-49
2024/03/13 08:45:29;;;;;;;11.20;7.10;;;10.20;99.90;;;;;;5073025;28;20116;-51
2024/03/13 08:48:13;;;;;;;10.40;6.38;;;10.10;99.90;;;;;;5070218;28;20065;-47
2024/03/13 08:50:59;;;;;;;6.82;4.95;;;10.20;99.90;;;;;;5077205;28;20045;-50
2024/03/13 08:53:45;;;;;;;6.43;4.38;;;10.20;99.90;;;;;;5068050;28;20032;-49
2024/03/13 08:56:36;;;;;;;7.10;4.88;;;9.90;99.90;;;;;;5074670;28;20573;-46
2024/03/13 08:59:20;;;;;;;8.25;6.15;;;9.90;99.90;;;;;;5068297;28;20024;-47
2024/03/13 09:02:05;;;;;;;9.95;6.03;;;9.90;99.90;;;;;;5072944;28;20032;-49
2024/03/13 09:04:49;;;;;;;8.18;5.97;;;9.70;99.90;;;;;;5078889;28;20025;-55
2024/03/13 09:07:34;;;;;;;11.40;7.35;;;9.60;99.90;;;;;;5068976;28;20107;-54
2024/03/13 09:10:01;;;;;;;10.55;7.07;;;9.70;99.90;;;;;;5073508;28;20048;-49
2024/03/13 09:12:28;;;;;;;9.35;6.18;;;9.80;99.90;;;;;;5078167;28;20059;-49
2024/03/13 09:14:55;;;;;;;8.48;5.25;;;10.00;99.90;;;;;;5075237;28;20048;-43
2024/03/13 09:17:23;;;;;;;6.13;4.95;;;9.90;99.90;;;;;;5071166;28;20043;-43
2024/03/13 09:19:51;;;;;;;7.05;5.38;;;9.80;99.90;;;;;;5070749;28;20061;-47
2024/03/13 09:22:18;;;;;;;7.95;4.97;;;9.60;99.90;;;;;;5079519;28;20101;-45
2024/03/13 09:24:45;;;;;;;7.25;4.70;;;9.60;99.90;;;;;;5068012;28;20056;-49
2024/03/13 09:27:13;;;;;;;7.13;4.65;;;9.60;99.90;;;;;;5071270;28;20051;-47
2024/03/13 09:29:40;;;;;;;6.45;4.68;;;9.50;99.90;;;;;;5076933;28;20486;-45
2024/03/13 09:32:09;;;;;;;5.70;4.43;;;9.60;99.90;;;;;;5072160;28;20048;-48
2024/03/13 09:34:36;;;;;;;9.18;5.65;;;9.60;99.90;;;;;;5079580;28;20040;-50
2024/03/13 09:37:07;;;;;;;8.45;4.65;;;9.40;99.90;;;;;;5068950;28;20086;-48
2024/03/13 09:39:36;;;;;;;5.88;4.30;;;9.40;99.90;;;;;;5079115;28;20086;-50
2024/03/13 09:42:16;;;;;;;5.40;3.90;;;9.40;99.90;;;;;;5079147;28;20039;-51
2024/03/13 09:44:44;;;;;;;7.10;4.68;;;9.20;99.90;;;;;;5072855;28;20053;-44
2024/03/13 09:47:13;;;;;;;5.57;4.53;;;9.20;99.90;;;;;;5072256;28;20047;-46
2024/03/13 09:49:44;;;;;;;6.30;4.45;;;9.40;99.90;;;;;;5077954;28;20055;-48
2024/03/13 09:52:15;;;;;;;5.25;4.13;;;9.50;99.90;;;;;;5073756;28;20446;-45
2024/03/13 09:54:43;;;;;;;5.68;4.57;;;9.80;99.90;;;;;;5075270;28;20406;-46
2024/03/13 09:57:11;;;;;;;19.15;12.13;;;10.00;99.90;;;;;;5073549;28;20064;-48
2024/03/13 09:59:39;;;;;;;8.07;4.05;;;10.10;99.90;;;;;;5078464;28;20048;-49
2024/03/13 10:02:14;;;;;;;5.72;4.10;;;10.30;99.90;;;;;;5076499;28;20025;-50
2024/03/13 10:04:42;;;;;;;5.97;4.10;;;10.70;99.90;;;;;;5074916;28;20365;-50
2024/03/13 10:07:18;;;;;;;7.65;4.57;;;11.00;99.90;;;;;;5069188;28;20097;-48
2024/03/13 10:09:47;;;;;;;5.78;4.25;;;11.30;99.90;;;;;;5071250;28;20045;-49
2024/03/13 10:12:19;;;;;;;4.53;4.10;;;11.40;99.90;;;;;;5078238;28;20133;-49
2024/03/13 10:14:47;;;;;;;4.85;3.65;;;11.40;99.90;;;;;;5070654;28;20048;-44
2024/03/13 10:17:18;;;;;;;5.78;4.55;;;11.60;99.90;;;;;;5080444;28;20098;-49
2024/03/13 10:19:48;;;;;;;6.28;4.72;;;11.70;99.90;;;;;;5070125;28;20131;-46
2024/03/13 10:22:17;;;;;;;5.40;4.40;;;12.10;99.90;;;;;;5080322;28;20119;-48
2024/03/13 10:24:47;;;;;;;4.32;3.72;;;12.30;99.90;;;;;;5065946;28;20368;-46
2024/03/13 10:27:15;;;;;;;5.13;3.85;;;12.40;99.90;;;;;;5075781;28;20040;-42
2024/03/13 10:29:43;;;;;;;4.22;3.47;;;12.20;99.90;;;;;;5076750;28;20048;-49
2024/03/13 10:32:16;;;;;;;5.30;3.47;;;11.90;99.90;;;;;;5074227;28;20065;-49
2024/03/13 10:34:44;;;;;;;4.93;3.70;;;12.10;99.90;;;;;;5074999;28;20045;-49
2024/03/13 10:37:12;;;;;;;6.25;4.05;;;11.80;99.90;;;;;;5061881;28;20095;-43
2024/03/13 10:39:41;;;;;;;4.28;3.80;;;11.70;99.90;;;;;;5071937;28;20082;-50
2024/03/13 10:42:09;;;;;;;4.85;3.95;;;11.70;99.90;;;;;;5072262;28;20036;-52
2024/03/13 10:44:36;;;;;;;6.18;3.90;;;11.70;99.90;;;;;;5070297;28;20215;-52
2024/03/13 10:47:06;;;;;;;5.38;3.90;;;11.60;99.90;;;;;;5072202;28;20044;-45
2024/03/13 10:49:33;;;;;;;4.53;4.00;;;12.00;99.90;;;;;;5074366;28;20048;-45
2024/03/13 10:52:05;;;;;;;5.30;4.45;;;12.20;99.90;;;;;;5078483;28;20059;-49
2024/03/13 10:54:34;;;;;;;4.85;4.35;;;12.50;99.90;;;;;;5069425;28;20071;-50
2024/03/13 10:57:01;;;;;;;8.40;4.30;;;12.70;99.90;;;;;;5074053;28;20040;-46
2024/03/13 10:59:29;;;;;;;4.35;3.83;;;12.90;99.90;;;;;;5070906;28;20032;-45
2024/03/13 11:01:56;;;;;;;5.03;3.85;;;13.00;99.90;;;;;;5073741;28;20500;-49
2024/03/13 11:04:26;;;;;;;4.05;3.60;;;12.80;99.90;;;;;;5077312;28;20497;-52
2024/03/13 11:06:54;;;;;;;4.30;3.90;;;12.90;99.90;;;;;;5069517;28;20049;-48
2024/03/13 11:09:21;;;;;;;11.32;7.82;;;13.00;99.90;;;;;;5079208;28;20048;-46
2024/03/13 11:11:53;;;;;;;4.18;3.50;;;13.00;99.90;;;;;;5047927;28;20575;-44
2024/03/13 11:14:22;;;;;;;5.20;3.67;;;12.80;99.90;;;;;;5077078;28;20075;-44
2024/03/13 11:16:54;;;;;;;5.50;3.90;;;13.00;99.90;;;;;;5074293;28;20529;-48
2024/03/13 11:19:23;;;;;;;;;;;12.80;99.90;;;;;;5072863;28;20041;-43
2024/03/13 11:21:57;;;;;;;4.82;4.10;;;12.90;99.90;;;;;;5077449;28;20493;-43
2024/03/13 11:24:31;;;;;;;4.88;3.92;;;12.90;99.90;;;;;;5071797;28;20048;-48
2024/03/13 11:27:16;;;;;;;4.20;3.60;;;12.80;99.90;;;;;;5080647;28;20036;-48
2024/03/13 11:29:48;;;;;;;4.18;3.78;;;12.80;99.90;;;;;;5084034;28;20049;-48
2024/03/13 11:32:18;;;;;;;4.22;3.83;;;12.90;99.90;;;;;;5070499;28;20071;-49
2024/03/13 11:34:45;;;;;;;5.05;4.07;;;12.90;99.90;;;;;;5080560;28;20052;-47
2024/03/13 11:37:13;;;;;;;4.43;4.00;;;13.00;99.90;;;;;;5066987;28;20069;-46
2024/03/13 11:39:42;;;;;;;4.10;3.70;;;13.10;99.90;;;;;;5067634;28;20124;-47
2024/03/13 11:42:13;;;;;;;4.13;3.70;;;13.40;99.90;;;;;;5071905;28;20036;-50
2024/03/13 11:44:49;;;;;;;4.23;3.83;;;13.50;99.90;;;;;;5071763;28;20095;-47
2024/03/13 11:47:22;;;;;;;5.95;4.20;;;13.30;99.90;;;;;;5071248;28;20340;-46
2024/03/13 11:49:59;;;;;;;5.50;4.47;;;13.40;99.90;;;;;;5072551;28;20143;-46
2024/03/13 11:52:26;;;;;;;4.90;4.38;;;13.70;99.90;;;;;;5077715;28;20505;-48
2024/03/13 11:54:56;;;;;;;4.82;4.22;;;13.70;99.90;;;;;;5078489;28;20130;-48
2024/03/13 11:57:24;;;;;;;4.80;4.15;;;13.80;99.90;;;;;;5075287;28;20126;-48
2024/03/13 11:59:53;;;;;;;5.05;4.55;;;13.70;99.90;;;;;;5076623;28;20048;-43
2024/03/13 12:02:30;;;;;;;4.38;3.97;;;13.60;99.90;;;;;;5071279;28;20039;-45
2024/03/13 12:05:03;;;;;;;4.88;4.38;;;13.60;99.90;;;;;;5072443;28;20075;-46
2024/03/13 12:07:36;;;;;;;4.80;4.18;;;13.80;99.90;;;;;;5066735;28;20074;-44
2024/03/13 12:10:03;;;;;;;5.05;3.92;;;13.90;99.90;;;;;;5075010;28;20386;-46
2024/03/13 12:12:31;;;;;;;4.80;4.40;;;14.30;99.90;;;;;;5081928;28;20171;-46
2024/03/13 12:15:00;;;;;;;5.57;4.55;;;14.60;99.90;;;;;;5074137;28;20048;-48
2024/03/13 12:17:27;;;;;;;4.82;4.22;;;15.10;99.90;;;;;;5077671;28;20548;-49
2024/03/13 12:19:54;;;;;;;12.18;8.13;;;15.10;99.90;;;;;;5071055;28;20139;-45
2024/03/13 12:22:21;;;;;;;5.78;5.18;;;15.70;99.90;;;;;;5069968;28;20042;-46
2024/03/13 12:24:48;;;;;;;4.90;4.40;;;16.00;99.90;;;;;;5075293;28;20048;-51
2024/03/13 12:27:15;;;;;;;4.97;4.32;;;16.30;99.90;;;;;;5074012;28;20045;-48
2024/03/13 12:29:42;;;;;;;4.90;4.43;;;16.60;99.90;;;;;;5077751;28;20048;-49
2024/03/13 12:32:09;;;;;;;5.05;4.57;;;17.00;99.90;;;;;;5066825;28;20044;-45
2024/03/13 12:34:36;;;;;;;5.32;4.82;;;18.10;99.90;;;;;;5075489;28;20092;-49
2024/03/13 12:37:05;;;;;;;5.35;4.90;;;19.40;99.90;;;;;;5074602;28;20581;-49
2024/03/13 12:39:36;;;;;;;6.25;5.60;;;20.40;99.90;;;;;;5079654;28;20032;-49
2024/03/13 12:42:04;;;;;;;6.03;5.20;;;20.90;99.90;;;;;;5069139;28;20480;-46
2024/03/13 12:44:32;;;;;;;4.88;4.45;;;20.00;99.90;;;;;;5069216;28;20041;-46
2024/03/13 12:47:00;;;;;;;5.75;5.25;;;19.10;99.90;;;;;;5068922;28;20055;-49
2024/03/13 12:49:27;;;;;;;5.28;4.72;;;18.80;99.90;;;;;;5068182;28;20045;-46
2024/03/13 12:51:54;;;;;;;11.63;9.52;;;18.40;99.90;;;;;;5076891;28;20135;-46
2024/03/13 12:54:25;;;;;;;5.78;5.28;;;17.60;99.90;;;;;;5075309;28;20562;-44
2024/03/13 12:56:55;;;;;;;5.20;4.80;;;16.50;99.90;;;;;;5073231;28;20085;-49
2024/03/13 12:59:22;;;;;;;5.40;4.90;;;16.10;99.90;;;;;;5070855;28;20040;-50
2024/03/13 13:01:50;;;;;;;4.97;4.57;;;16.00;99.90;;;;;;5073123;28;20578;-44
2024/03/13 13:04:21;;;;;;;5.32;4.82;;;15.80;99.90;;;;;;5074100;28;20039;-52
2024/03/13 13:06:48;;;;;;;5.77;4.70;;;15.30;99.90;;;;;;5074134;28;20057;-46
2024/03/13 13:09:15;;;;;;;5.60;5.18;;;14.60;99.90;;;;;;5066310;28;20314;-48